Airfield :
LOGIN :

Register | Disclaimer

   EN    FR    IT 

 










Legend :    VFR   Marginal VFR   IFR   Intensive IFR   Very Intensive IFR
Visi :
Ceiling :
>= 8 km
>= 3000ft
5 to 8 km
1000 to 3000 ft
1500m to 5 km
500 to 1000 ft
800 to 1500m
200 to 500 ft
< 800m
< 200 ft
Symbols :   Thunderstorms  Fog  Heavy snow  Heavy precipitations  Wind > 20 kt
SIGMETs :     Misc.  Thunderstorms  Icing  Turbulence  Mountain Waves  Volcanic Ashes







- Airport Elevation : 7 ft
- IATA code : VCE


LIPZ - Marco Polo Int. Venezia

CURRENT METAR :
  • 231420Z 15008KT CAVOK 26/16 Q1015 NOSIG

EXPIRED METARs :
  • 231350Z 14009KT CAVOK 26/17 Q1015 NOSIG
  • 231320Z 14008KT 110V180 CAVOK 26/16 Q1015 NOSIG
  • 231250Z 14008KT 110V170 CAVOK 25/15 Q1016 NOSIG
  • 231220Z 15007KT 120V180 CAVOK 25/15 Q1016 NOSIG
  • 231150Z 14008KT CAVOK 24/15 Q1016 NOSIG

TAF TAF LIPZ
Valid from the 23 at 12:00 until the 24 at 18:00 UTC


231100Z 2312/2418 16010KT 9999 SCT030
BECMG 2319/2322 VRB05KT
BECMG 2408/2410 16010KT
No reported NOTAMs for that airfield.



MET'MAP, your aeronautical weather chart ! - Copyright ORBIFLY December 2007 - Disclaimer

ORBIFLY MET'MAP TEAM :

Programming & Development : Alexandra Zaïnal
Concept & Development : Baudouin d'Aumeries
Co-Development & Prog : Marc-Olivier Méhu
Technical & hardware support : Manuel Goepfert

Contact : metmap@orbifly.com




SOURCES & CREDITS :

   NOAA